createdAt,value
2023-03-21T06:02:07.326Z,20.03
2023-03-21T06:05:11.262Z,17.75
2023-03-21T06:08:14.442Z,19.33
2023-03-21T06:11:24.566Z,17.65
2023-03-21T06:14:27.836Z,19.60
2023-03-21T06:17:33.757Z,17.90
2023-03-21T06:20:36.952Z,22.10
2023-03-21T06:23:40.994Z,17.55
2023-03-21T06:26:44.192Z,23.13
2023-03-21T06:29:52.219Z,19.75
2023-03-21T06:32:57.164Z,19.23
2023-03-21T06:36:03.266Z,21.85
2023-03-21T06:39:12.929Z,19.58
2023-03-21T06:42:18.103Z,18.65
2023-03-21T06:45:21.294Z,25.17
2023-03-21T06:48:26.057Z,18.47
2023-03-21T06:51:29.561Z,19.52
2023-03-21T06:54:32.830Z,21.23
2023-03-21T06:57:35.994Z,23.52
2023-03-21T07:00:39.322Z,20.08
2023-03-21T07:03:44.429Z,21.07
2023-03-21T07:06:47.989Z,19.20
2023-03-21T07:09:51.471Z,20.98
2023-03-21T07:12:54.891Z,19.88
2023-03-21T07:15:58.131Z,22.23
2023-03-21T07:19:03.162Z,17.90
2023-03-21T07:22:06.480Z,17.33
2023-03-21T07:25:10.622Z,16.50
2023-03-21T07:28:13.862Z,15.50
2023-03-21T07:31:19.637Z,14.00
2023-03-21T07:34:24.683Z,16.43
2023-03-21T07:37:28.563Z,14.77
2023-03-21T07:40:31.825Z,17.40
2023-03-21T07:43:36.429Z,19.23
2023-03-21T07:46:42.478Z,14.20
2023-03-21T07:49:47.337Z,17.97
2023-03-21T07:52:51.226Z,16.80
2023-03-21T07:55:56.593Z,14.98
2023-03-21T07:59:00.429Z,18.00
2023-03-21T08:02:03.849Z,17.00
2023-03-21T08:05:14.590Z,17.83
2023-03-21T08:08:18.067Z,16.02
2023-03-21T08:11:22.627Z,17.70
2023-03-21T08:14:28.415Z,13.73
2023-03-21T08:17:31.699Z,13.05
2023-03-21T08:20:36.273Z,13.50
2023-03-21T08:23:39.979Z,13.15
2023-03-21T08:26:43.683Z,14.18
2023-03-21T08:29:47.059Z,13.38
2023-03-21T08:33:01.205Z,15.38
2023-03-21T08:36:08.744Z,11.57
2023-03-21T08:39:12.223Z,16.58
2023-03-21T08:42:16.583Z,11.60
2023-03-21T08:45:19.812Z,12.60
2023-03-21T08:48:23.280Z,12.75
2023-03-21T08:51:29.347Z,11.27
2023-03-21T08:54:45.815Z,12.30
2023-03-21T08:57:52.266Z,11.57
2023-03-21T09:00:56.056Z,13.30
2023-03-21T09:03:59.631Z,12.52
2023-03-21T09:07:05.333Z,12.97
2023-03-21T09:10:26.947Z,12.07
2023-03-21T09:13:33.410Z,11.90
2023-03-21T09:16:36.880Z,13.05
2023-03-21T09:19:43.166Z,12.18
2023-03-21T09:22:52.381Z,12.03
2023-03-21T09:25:56.507Z,13.30
2023-03-21T09:29:03.006Z,12.15
2023-03-21T09:32:09.949Z,14.52
2023-03-21T09:35:16.579Z,12.23
2023-03-21T09:38:22.205Z,9.93
2023-03-21T09:41:38.196Z,11.60
2023-03-21T09:44:55.227Z,11.35
2023-03-21T09:47:58.754Z,12.75
2023-03-21T09:51:04.784Z,11.93
2023-03-21T09:54:19.129Z,11.97
2023-03-21T09:58:22.384Z,11.77
2023-03-21T10:01:10.843Z,11.57
2023-03-21T10:04:18.994Z,13.57
2023-03-21T10:07:22.689Z,9.35
2023-03-21T10:10:33.629Z,9.80
2023-03-21T10:13:43.888Z,10.55
2023-03-21T10:16:49.831Z,10.90
2023-03-21T10:20:00.137Z,11.20
2023-03-21T10:23:06.985Z,9.70
2023-03-21T10:26:16.805Z,9.43
2023-03-21T10:29:24.988Z,11.20
2023-03-21T10:32:29.359Z,9.82
2023-03-21T10:35:51.088Z,9.70
2023-03-21T10:39:08.506Z,9.88
2023-03-21T10:42:22.839Z,11.07
2023-03-21T10:45:37.085Z,9.02
2023-03-21T10:48:46.504Z,9.43
2023-03-21T11:01:18.854Z,8.73
2023-03-21T11:04:27.093Z,7.25
2023-03-21T11:07:32.298Z,6.70
2023-03-21T11:10:58.596Z,7.10
2023-03-21T11:14:21.771Z,8.07
2023-03-21T11:17:30.454Z,7.50
2023-03-21T11:20:35.288Z,6.80
2023-03-21T11:23:47.019Z,5.93
2023-03-21T11:26:51.485Z,5.57
2023-03-21T11:29:56.141Z,5.65
2023-03-21T11:33:04.478Z,5.90
2023-03-21T11:36:44.703Z,5.25
2023-03-21T11:40:23.833Z,5.63
2023-03-21T11:43:33.420Z,7.75
2023-03-21T11:46:42.264Z,5.45
2023-03-21T11:49:48.191Z,6.70
2023-03-21T11:53:22.210Z,6.55
2023-03-21T11:56:35.235Z,8.40
2023-03-21T11:59:45.007Z,6.78
2023-03-21T12:03:07.708Z,7.85
2023-03-21T12:06:21.711Z,6.37
2023-03-21T12:09:37.427Z,8.52
2023-03-21T12:12:54.637Z,8.93
2023-03-21T12:16:29.532Z,6.43
2023-03-21T12:19:55.601Z,5.63
2023-03-21T12:23:29.674Z,9.47
2023-03-21T12:26:37.584Z,4.88
2023-03-21T12:30:00.898Z,5.30
2023-03-21T12:33:24.473Z,4.20
2023-03-21T12:37:01.729Z,4.25
2023-03-21T12:40:17.022Z,5.47
2023-03-21T12:43:39.571Z,5.13
2023-03-21T12:47:00.244Z,5.22
2023-03-21T12:50:17.375Z,6.43
2023-03-21T12:53:38.204Z,5.35
2023-03-21T12:56:51.137Z,6.77
2023-03-21T13:00:00.291Z,9.60
2023-03-21T13:03:07.688Z,4.85
2023-03-21T13:06:12.964Z,5.20
2023-03-21T13:09:28.408Z,6.45
2023-03-21T13:13:10.220Z,5.10
2023-03-21T13:16:19.485Z,5.05
2023-03-21T13:19:49.553Z,5.30
2023-03-21T13:22:55.062Z,6.15
2023-03-21T13:25:59.363Z,7.47
2023-03-21T13:29:16.851Z,4.30
2023-03-21T13:32:42.833Z,4.85
2023-03-21T13:36:01.428Z,4.10
2023-03-21T13:39:07.603Z,3.65
2023-03-21T13:42:24.201Z,4.65
2023-03-21T13:45:33.283Z,5.37
2023-03-21T13:49:01.709Z,4.38
2023-03-21T13:52:28.064Z,3.63
2023-03-21T13:55:34.408Z,3.53
2023-03-21T13:58:40.700Z,7.22
2023-03-21T14:02:13.864Z,5.67
2023-03-21T14:05:23.540Z,6.10
2023-03-21T14:08:37.152Z,4.97
2023-03-21T14:11:46.754Z,3.83
2023-03-21T14:14:57.834Z,3.90
2023-03-21T14:18:16.415Z,5.73
2023-03-21T14:21:33.993Z,5.07
2023-03-21T14:24:37.406Z,5.85
2023-03-21T14:27:44.797Z,5.65
2023-03-21T14:30:52.957Z,4.25
2023-03-21T14:34:01.022Z,4.70
2023-03-21T14:37:08.738Z,5.53
2023-03-21T14:40:20.906Z,4.78
2023-03-21T14:43:25.329Z,4.10
2023-03-21T14:46:28.525Z,4.70
2023-03-21T14:50:10.260Z,5.60
2023-03-21T14:53:32.701Z,4.03
2023-03-21T14:56:45.638Z,5.85
2023-03-21T14:59:58.386Z,5.85
2023-03-21T15:03:37.218Z,5.45
2023-03-21T15:06:57.656Z,3.90
2023-03-21T15:10:04.833Z,5.22
2023-03-21T15:13:26.269Z,6.72
2023-03-21T15:16:30.616Z,3.70
2023-03-21T15:19:43.797Z,4.93
2023-03-21T15:23:22.156Z,8.13
2023-03-21T15:26:31.711Z,3.90
2023-03-21T15:29:55.015Z,4.82
2023-03-21T15:33:11.923Z,4.95
2023-03-21T15:36:51.510Z,5.53
2023-03-21T15:40:33.566Z,5.50
2023-03-21T15:43:57.852Z,5.63
2023-03-21T15:51:42.849Z,6.05
2023-03-21T15:54:59.551Z,4.60
2023-03-21T15:58:19.973Z,5.97
